createdAt,value
2019-04-06T00:00:39.254Z,2.30
2019-04-06T00:03:09.658Z,2.40
2019-04-06T00:05:40.124Z,2.40
2019-04-06T00:08:10.515Z,2.40
2019-04-06T00:10:40.955Z,2.30
2019-04-06T00:13:11.432Z,2.20
2019-04-06T00:15:42.005Z,2.20
2019-04-06T00:18:12.532Z,2.20
2019-04-06T00:20:42.950Z,2.10
2019-04-06T00:23:13.442Z,2.10
2019-04-06T00:25:44.992Z,2.20
2019-04-06T00:28:15.911Z,2.20
2019-04-06T00:30:53.488Z,2.30
2019-04-06T00:33:25.663Z,2.20
2019-04-06T00:35:56.088Z,2.20
2019-04-06T00:38:26.531Z,2.20
2019-04-06T00:40:56.938Z,2.20
2019-04-06T00:43:27.346Z,2.10
2019-04-06T00:45:57.705Z,2.00
2019-04-06T00:48:28.196Z,2.00
2019-04-06T00:50:58.618Z,1.90
2019-04-06T00:53:29.019Z,1.90
2019-04-06T00:55:59.465Z,1.80
2019-04-06T00:58:29.925Z,1.80
2019-04-06T01:01:00.400Z,1.80
2019-04-06T01:03:30.855Z,1.70
2019-04-06T01:06:01.216Z,1.70
2019-04-06T01:08:31.698Z,1.70
2019-04-06T01:11:02.102Z,1.70
2019-04-06T01:13:32.637Z,1.70
2019-04-06T01:16:03.133Z,1.60
2019-04-06T01:18:33.573Z,1.60
2019-04-06T01:21:03.963Z,1.60
2019-04-06T01:23:34.438Z,1.60
2019-04-06T01:26:07.334Z,1.70
2019-04-06T01:28:38.084Z,1.80
2019-04-06T01:31:08.560Z,1.60
2019-04-06T01:33:39.078Z,1.60
2019-04-06T01:36:09.526Z,1.50
2019-04-06T01:38:39.952Z,1.60
2019-04-06T01:41:10.318Z,1.50
2019-04-06T01:43:40.739Z,1.50
2019-04-06T01:46:11.217Z,1.50
2019-04-06T01:48:41.605Z,1.50
2019-04-06T01:51:12.008Z,1.50
2019-04-06T01:53:42.432Z,1.40
2019-04-06T01:56:18.314Z,1.40
2019-04-06T01:58:44.854Z,1.30
2019-04-06T02:01:19.635Z,1.20
2019-04-06T02:03:50.126Z,1.20
2019-04-06T02:06:20.625Z,1.30
2019-04-06T02:08:51.102Z,1.40
2019-04-06T02:11:21.479Z,1.40
2019-04-06T02:13:51.988Z,1.40
2019-04-06T02:16:22.493Z,1.40
2019-04-06T02:18:52.928Z,1.40
2019-04-06T02:21:23.517Z,1.30
2019-04-06T02:23:53.955Z,1.30
2019-04-06T02:26:30.144Z,1.20
2019-04-06T02:28:57.649Z,1.20
2019-04-06T02:31:45.817Z,1.30
2019-04-06T02:34:20.868Z,1.60
2019-04-06T02:36:52.867Z,1.80
2019-04-06T02:39:27.628Z,2.00
2019-04-06T02:41:59.569Z,2.00
2019-04-06T02:44:30.049Z,2.00
2019-04-06T02:47:00.389Z,2.10
2019-04-06T02:49:30.814Z,2.10
2019-04-06T02:52:01.265Z,2.00
2019-04-06T02:54:31.635Z,2.00
2019-04-06T02:57:02.019Z,1.90
2019-04-06T02:59:32.476Z,1.90
2019-04-06T03:02:02.831Z,1.90
2019-04-06T03:04:33.385Z,1.80
2019-04-06T03:07:03.788Z,1.80
2019-04-06T03:09:34.358Z,1.80
2019-04-06T03:12:06.462Z,1.70
2019-04-06T03:14:36.970Z,1.60
2019-04-06T03:17:07.648Z,1.60
2019-04-06T03:19:38.094Z,1.70
2019-04-06T03:22:08.512Z,1.80
2019-04-06T03:24:38.924Z,1.90
2019-04-06T03:27:09.514Z,2.10
2019-04-06T03:29:39.945Z,2.50
2019-04-06T03:32:10.420Z,2.80
2019-04-06T03:34:41.220Z,3.20
2019-04-06T03:37:11.945Z,3.90
2019-04-06T03:39:42.742Z,4.70
2019-04-06T03:42:13.283Z,5.60
2019-04-06T03:44:43.761Z,6.30
2019-04-06T03:47:14.223Z,6.50
2019-04-06T03:49:44.859Z,5.90
2019-04-06T03:52:15.227Z,5.90
2019-04-06T03:54:45.782Z,5.70
2019-04-06T03:57:17.089Z,5.60
2019-04-06T03:59:47.997Z,6.20
2019-04-06T04:02:18.272Z,6.00
2019-04-06T04:05:03.435Z,5.70
2019-04-06T04:07:34.004Z,5.80
2019-04-06T04:10:06.836Z,6.00
2019-04-06T04:12:39.016Z,6.00
2019-04-06T04:15:09.507Z,5.50
2019-04-06T04:17:44.554Z,5.50
2019-04-06T04:20:15.168Z,5.60
2019-04-06T04:22:45.562Z,6.20
2019-04-06T04:25:16.229Z,6.90
2019-04-06T04:27:48.487Z,7.90
2019-04-06T04:30:31.465Z,8.60
2019-04-06T04:32:51.246Z,9.50
2019-04-06T04:35:21.705Z,10.10
2019-04-06T04:37:52.105Z,10.40
2019-04-06T04:40:22.625Z,10.50
2019-04-06T04:42:54.140Z,10.50
2019-04-06T04:45:26.092Z,10.80
2019-04-06T04:47:56.652Z,11.30
2019-04-06T04:50:27.698Z,11.40
2019-04-06T04:53:07.396Z,10.90
2019-04-06T04:55:37.674Z,10.20
2019-04-06T04:58:08.485Z,10.90
2019-04-06T05:00:38.885Z,10.70
2019-04-06T05:03:09.502Z,11.00
2019-04-06T05:05:39.981Z,11.00
2019-04-06T05:08:10.515Z,11.30
2019-04-06T05:10:41.179Z,10.70
2019-04-06T05:13:23.356Z,11.30
2019-04-06T05:16:16.734Z,12.00
2019-04-06T05:18:53.474Z,11.90
2019-04-06T05:21:24.576Z,11.70
2019-04-06T05:26:59.573Z,12.00
2019-04-06T05:29:41.023Z,12.60
2019-04-06T05:32:37.128Z,12.20
2019-04-06T05:35:09.841Z,12.10
2019-04-06T05:37:42.803Z,12.30
2019-04-06T05:40:14.794Z,12.50
2019-04-06T05:42:45.282Z,12.80
2019-04-06T05:45:17.469Z,13.50
2019-04-06T05:47:49.784Z,14.40
2019-04-06T05:50:20.263Z,13.20
2019-04-06T05:52:57.551Z,13.10
2019-04-06T05:55:31.515Z,13.60
2019-04-06T05:58:04.812Z,14.50
2019-04-06T06:00:41.025Z,13.90
2019-04-06T06:03:11.899Z,13.70
2019-04-06T06:05:44.052Z,12.70
2019-04-06T06:08:16.209Z,14.40
2019-04-06T06:10:46.998Z,13.40
2019-04-06T06:13:17.495Z,13.00
2019-04-06T06:15:48.028Z,13.80
2019-04-06T06:18:26.436Z,14.50
2019-04-06T06:20:52.367Z,15.20
2019-04-06T06:23:24.767Z,15.20
2019-04-06T06:25:56.912Z,13.60
2019-04-06T06:28:30.215Z,12.40
2019-04-06T06:31:01.321Z,12.10
2019-04-06T06:33:46.779Z,11.20
2019-04-06T06:36:13.366Z,10.90
2019-04-06T06:38:49.119Z,10.60
2019-04-06T06:41:27.168Z,10.50
2019-04-06T06:43:59.294Z,10.80
2019-04-06T06:46:29.839Z,10.50
2019-04-06T06:49:09.769Z,10.20
2019-04-06T06:51:41.724Z,10.20
2019-04-06T06:54:21.703Z,10.30
2019-04-06T06:56:54.497Z,10.30
2019-04-06T06:59:28.006Z,10.50
2019-04-06T07:02:01.780Z,10.30
2019-04-06T07:04:34.677Z,10.20
2019-04-06T07:07:05.480Z,10.30
2019-04-06T07:09:42.512Z,10.60
2019-04-06T07:12:13.072Z,10.90
2019-04-06T07:14:43.796Z,11.20
2019-04-06T07:17:14.507Z,11.30
2019-04-06T07:19:53.386Z,11.40
2019-04-06T07:22:29.034Z,11.70
2019-04-06T07:24:59.763Z,11.90
2019-04-06T07:27:31.974Z,12.00
2019-04-06T07:30:17.209Z,12.10
2019-04-06T07:32:48.808Z,12.30
2019-04-06T07:35:23.154Z,12.30
2019-04-06T07:37:54.992Z,12.30
2019-04-06T07:40:25.504Z,12.40
2019-04-06T07:42:57.711Z,12.40
2019-04-06T07:45:32.179Z,12.50
2019-04-06T07:48:02.761Z,12.50
2019-04-06T07:50:37.320Z,12.40
2019-04-06T07:53:13.595Z,12.40
2019-04-06T07:55:44.209Z,12.20
2019-04-06T07:58:14.861Z,12.30
2019-04-06T08:00:45.977Z,12.40
2019-04-06T08:03:17.150Z,12.50
2019-04-06T08:05:49.122Z,12.60
2019-04-06T08:08:19.514Z,12.80
2019-04-06T08:10:50.096Z,13.00
2019-04-06T08:13:20.959Z,13.10
2019-04-06T08:15:51.371Z,13.00
2019-04-06T08:18:21.895Z,13.00
2019-04-06T08:20:55.523Z,13.10
2019-04-06T08:23:26.046Z,12.90
2019-04-06T08:26:02.137Z,13.00
2019-04-06T08:28:35.456Z,13.00
2019-04-06T08:31:07.853Z,13.10
2019-04-06T08:33:38.315Z,13.10
2019-04-06T08:36:08.729Z,13.30
2019-04-06T08:38:39.369Z,13.30
2019-04-06T08:41:09.865Z,13.50
2019-04-06T08:43:41.039Z,13.50
2019-04-06T08:46:11.597Z,13.60
2019-04-06T08:48:42.194Z,13.90
2019-04-06T08:51:13.903Z,14.00
2019-04-06T08:53:44.402Z,14.10
2019-04-06T08:56:14.810Z,13.80
2019-04-06T08:58:45.385Z,13.90
2019-04-06T09:01:15.915Z,13.90
2019-04-06T09:03:46.343Z,13.90
2019-04-06T09:06:16.865Z,13.70
2019-04-06T09:08:47.268Z,13.80
2019-04-06T09:11:17.745Z,13.80
2019-04-06T09:13:48.389Z,13.80
2019-04-06T09:16:18.950Z,13.70
2019-04-06T09:18:49.655Z,13.80
2019-04-06T09:21:22.510Z,13.90
2019-04-06T09:23:53.170Z,13.90
2019-04-06T09:26:23.669Z,14.00
2019-04-06T09:28:54.271Z,14.10
2019-04-06T09:31:24.714Z,14.20
2019-04-06T09:33:56.760Z,14.30
2019-04-06T09:36:29.349Z,14.40
2019-04-06T09:39:00.026Z,14.40
2019-04-06T09:41:32.424Z,14.10
2019-04-06T09:44:10.422Z,14.10
2019-04-06T09:46:42.819Z,14.20
2019-04-06T09:49:27.992Z,14.20
2019-04-06T09:52:05.284Z,14.30
2019-04-06T09:54:47.845Z,14.30
2019-04-06T09:57:20.547Z,14.30
2019-04-06T10:00:01.955Z,14.30
2019-04-06T10:02:40.444Z,14.50
2019-04-06T10:05:25.391Z,14.40
2019-04-06T10:08:06.866Z,14.40
2019-04-06T10:10:41.836Z,14.30
2019-04-06T10:13:14.416Z,14.40
2019-04-06T10:16:02.495Z,14.50
2019-04-06T10:18:34.722Z,14.40
2019-04-06T10:21:25.358Z,14.60
2019-04-06T10:24:00.960Z,14.70
2019-04-06T10:26:36.657Z,14.50
2019-04-06T10:29:25.244Z,14.50
2019-04-06T10:32:15.834Z,14.50
2019-04-06T10:34:57.518Z,14.30
2019-04-06T10:37:32.522Z,14.60
2019-04-06T10:40:07.456Z,14.60
2019-04-06T10:42:54.904Z,14.70
2019-04-06T10:45:27.092Z,14.90
2019-04-06T10:48:04.881Z,15.00
2019-04-06T10:50:37.362Z,14.90
2019-04-06T10:53:12.166Z,14.90
2019-04-06T10:55:47.159Z,14.90
2019-04-06T10:58:37.387Z,14.90
2019-04-06T11:01:26.229Z,14.90
2019-04-06T11:03:58.932Z,14.80
2019-04-06T11:06:34.307Z,14.80
2019-04-06T11:09:09.030Z,14.80
2019-04-06T11:11:44.199Z,14.70
2019-04-06T11:14:28.968Z,14.70
2019-04-06T11:17:04.758Z,14.90
2019-04-06T11:19:38.129Z,14.90
2019-04-06T11:22:19.446Z,15.10
2019-04-06T11:25:08.598Z,15.00
2019-04-06T11:27:55.961Z,15.20
2019-04-06T11:30:28.252Z,15.20
2019-04-06T11:33:09.156Z,15.10
2019-04-06T11:35:59.027Z,15.00
2019-04-06T11:38:47.238Z,15.00
2019-04-06T11:41:43.865Z,15.00
2019-04-06T11:44:19.099Z,15.10
2019-04-06T11:47:12.723Z,15.30
2019-04-06T11:50:06.451Z,15.30
2019-04-06T11:52:52.218Z,15.20
2019-04-06T11:55:47.634Z,15.10
2019-04-06T11:58:22.781Z,15.00
2019-04-06T12:01:04.814Z,15.10
2019-04-06T12:03:54.434Z,15.20
2019-04-06T12:06:28.964Z,15.20
2019-04-06T12:09:04.250Z,15.40
2019-04-06T12:11:40.218Z,15.40
2019-04-06T12:14:15.409Z,15.40
2019-04-06T12:17:02.466Z,15.50
2019-04-06T12:19:34.659Z,15.40
2019-04-06T12:22:08.589Z,15.30
2019-04-06T12:24:55.815Z,15.20
2019-04-06T12:27:27.920Z,15.30
2019-04-06T12:30:11.493Z,15.50
2019-04-06T12:33:01.754Z,15.60
2019-04-06T12:35:49.947Z,15.40
2019-04-06T12:38:25.521Z,15.40
2019-04-06T12:41:13.963Z,15.40
2019-04-06T12:43:47.716Z,15.50
2019-04-06T12:46:36.282Z,15.60
2019-04-06T12:49:23.584Z,15.50
2019-04-06T12:51:56.520Z,15.50
2019-04-06T12:54:35.198Z,15.50
2019-04-06T12:57:07.439Z,15.40
2019-04-06T12:59:49.079Z,15.50
2019-04-06T13:02:40.553Z,15.50
2019-04-06T13:05:18.224Z,15.60
2019-04-06T13:08:08.616Z,15.30
2019-04-06T13:10:41.657Z,15.30
2019-04-06T13:13:19.696Z,15.40
2019-04-06T13:15:51.917Z,15.40
2019-04-06T13:18:32.674Z,15.30
2019-04-06T13:21:09.126Z,15.40
2019-04-06T13:23:43.675Z,15.40
2019-04-06T13:26:19.152Z,15.40
2019-04-06T13:29:11.613Z,15.50
2019-04-06T13:31:43.861Z,15.50
2019-04-06T13:34:21.972Z,15.50
2019-04-06T13:37:12.001Z,15.60
2019-04-06T13:39:44.107Z,15.60
2019-04-06T13:42:16.329Z,15.60
2019-04-06T13:44:51.821Z,15.60
2019-04-06T13:47:31.917Z,15.60
2019-04-06T13:50:15.039Z,15.70
2019-04-06T13:52:49.823Z,15.70
2019-04-06T13:55:34.033Z,15.70
2019-04-06T13:58:12.336Z,15.70
2019-04-06T14:01:12.674Z,15.60
2019-04-06T14:03:43.755Z,15.60
2019-04-06T14:06:18.645Z,15.50
2019-04-06T14:09:03.349Z,15.60
2019-04-06T14:11:36.979Z,15.60
2019-04-06T14:14:17.879Z,15.50
2019-04-06T14:16:50.758Z,15.50
2019-04-06T14:19:25.517Z,15.50
2019-04-06T14:22:03.540Z,15.50
2019-04-06T14:24:47.165Z,15.50
2019-04-06T14:27:19.451Z,15.50
2019-04-06T14:30:03.843Z,15.50
2019-04-06T14:32:43.226Z,15.50
2019-04-06T14:35:24.461Z,15.40
2019-04-06T14:37:57.126Z,15.40
2019-04-06T14:40:31.140Z,15.40
2019-04-06T14:43:12.745Z,15.40
2019-04-06T14:46:03.134Z,15.30
2019-04-06T14:48:35.682Z,15.30
2019-04-06T14:51:24.851Z,15.30
2019-04-06T14:54:10.400Z,15.20
2019-04-06T14:56:45.520Z,15.20
2019-04-06T14:59:23.486Z,15.20
2019-04-06T15:02:11.914Z,15.00
2019-04-06T15:04:56.218Z,15.00
2019-04-06T15:07:45.926Z,14.90
2019-04-06T15:10:39.193Z,14.90
2019-04-06T15:13:12.038Z,15.00
2019-04-06T15:16:00.865Z,15.00
2019-04-06T15:18:44.093Z,14.90
2019-04-06T15:21:16.280Z,15.00
2019-04-06T15:23:49.050Z,14.90
2019-04-06T15:26:30.046Z,14.80
2019-04-06T15:29:38.703Z,14.80
2019-04-06T17:29:20.908Z,11.30
2019-04-06T17:32:09.183Z,11.10
2019-04-06T18:40:50.353Z,10.20
2019-04-06T18:43:22.118Z,10.10
2019-04-06T18:45:52.534Z,9.90
2019-04-06T18:48:25.021Z,9.80
2019-04-06T18:50:56.940Z,9.80
2019-04-06T18:53:28.818Z,9.80
2019-04-06T18:55:59.337Z,9.60
2019-04-06T18:58:31.712Z,9.50
2019-04-06T19:01:06.261Z,9.40
2019-04-06T19:03:39.366Z,9.30
2019-04-06T19:06:09.765Z,9.30
2019-04-06T19:08:42.073Z,9.30
2019-04-06T19:11:18.353Z,9.40
2019-04-06T19:13:51.032Z,9.60
2019-04-06T19:16:21.921Z,9.60
2019-04-06T19:18:52.769Z,9.60
2019-04-06T19:21:24.638Z,9.60
2019-04-06T19:23:55.099Z,9.60
2019-04-06T19:26:25.543Z,9.70
2019-04-06T19:28:57.414Z,9.60
2019-04-06T19:31:29.967Z,9.60
2019-04-06T19:34:02.563Z,9.60
2019-04-06T19:36:33.073Z,9.60
2019-04-06T19:39:09.659Z,9.60
2019-04-06T19:41:46.076Z,9.50
2019-04-06T19:44:16.528Z,9.50
2019-04-06T19:46:46.943Z,9.50
2019-04-06T19:49:17.805Z,9.60
2019-04-06T19:51:51.007Z,9.90
2019-04-06T19:54:21.456Z,10.00
2019-04-06T19:56:53.051Z,10.00
2019-04-06T19:59:23.496Z,10.00
2019-04-06T20:01:53.926Z,9.90
2019-04-06T20:04:24.527Z,9.90
2019-04-06T20:06:54.918Z,9.80
2019-04-06T20:09:28.070Z,9.80
2019-04-06T20:12:06.035Z,9.80
2019-04-06T20:14:32.688Z,9.80
2019-04-06T20:17:04.413Z,9.70
2019-04-06T20:19:35.099Z,9.70
2019-04-06T20:22:05.700Z,9.60
2019-04-06T20:24:36.359Z,9.70
2019-04-06T20:27:07.131Z,9.70
2019-04-06T20:29:37.955Z,9.70
2019-04-06T20:32:08.624Z,9.70
2019-04-06T20:34:39.617Z,9.70
2019-04-06T20:37:10.183Z,9.80
2019-04-06T20:39:41.005Z,9.80
2019-04-06T20:42:11.681Z,9.80
2019-04-06T20:44:45.191Z,9.70
2019-04-06T20:47:17.831Z,9.70
2019-04-06T20:49:48.370Z,9.70
2019-04-06T20:52:20.573Z,9.70
2019-04-06T20:54:51.507Z,9.70
2019-04-06T20:57:22.136Z,9.70
2019-04-06T20:59:52.645Z,9.60
2019-04-06T21:02:26.649Z,9.50
2019-04-06T21:04:57.526Z,9.50
2019-04-06T21:07:28.492Z,9.40
2019-04-06T21:09:59.401Z,9.40
2019-04-06T21:12:29.860Z,9.40
2019-04-06T21:15:15.883Z,9.40
2019-04-06T21:17:36.421Z,9.40
2019-04-06T21:20:10.708Z,9.30
2019-04-06T21:22:41.231Z,9.20
2019-04-06T21:25:14.758Z,9.10
2019-04-06T21:27:46.277Z,9.00
2019-04-06T21:30:17.085Z,9.10
2019-04-06T21:32:50.582Z,9.00
2019-04-06T21:35:22.597Z,8.80
2019-04-06T21:37:53.009Z,8.80
2019-04-06T21:40:23.722Z,8.80
2019-04-06T21:42:54.222Z,8.80
2019-04-06T21:45:26.161Z,9.00
2019-04-06T21:47:56.580Z,9.00
2019-04-06T21:50:27.522Z,8.90
2019-04-06T21:52:58.571Z,8.90
2019-04-06T21:55:29.281Z,8.90
2019-04-06T21:57:59.823Z,8.80
2019-04-06T22:00:38.585Z,8.70
2019-04-06T22:03:10.108Z,8.60
2019-04-06T22:05:41.040Z,8.60
2019-04-06T22:08:11.816Z,8.60
2019-04-06T22:10:42.363Z,8.50
2019-04-06T22:13:13.327Z,8.40
2019-04-06T22:15:43.785Z,8.40
2019-04-06T22:18:14.414Z,8.20
2019-04-06T22:20:45.427Z,8.10
2019-04-06T22:23:16.088Z,8.10
2019-04-06T22:25:47.096Z,7.90
2019-04-06T22:28:17.821Z,7.90
2019-04-06T22:30:48.547Z,7.80
2019-04-06T22:33:19.618Z,7.70
2019-04-06T22:35:50.698Z,7.70
2019-04-06T22:38:23.158Z,7.60
2019-04-06T22:40:53.721Z,7.50
2019-04-06T22:43:24.908Z,7.50
2019-04-06T22:45:55.534Z,7.40
2019-04-06T22:48:26.550Z,7.30
2019-04-06T22:50:57.764Z,7.30
2019-04-06T22:53:28.565Z,7.20
2019-04-06T22:55:59.104Z,7.10
2019-04-06T22:58:30.112Z,7.10
2019-04-06T23:01:05.401Z,7.00
2019-04-06T23:03:46.640Z,6.80
2019-04-06T23:06:19.692Z,6.80
2019-04-06T23:08:50.726Z,7.00
2019-04-06T23:11:21.682Z,6.90
2019-04-06T23:13:52.675Z,6.90
2019-04-06T23:16:23.147Z,6.90
2019-04-06T23:18:53.752Z,6.90
2019-04-06T23:21:24.726Z,6.80
2019-04-06T23:23:55.644Z,6.90
2019-04-06T23:26:27.771Z,6.90
2019-04-06T23:28:58.416Z,7.00
2019-04-06T23:31:29.148Z,7.20
2019-04-06T23:33:59.853Z,7.20
2019-04-06T23:36:30.461Z,7.30
2019-04-06T23:39:01.086Z,7.40
2019-04-06T23:41:32.223Z,7.50
2019-04-06T23:44:03.148Z,7.60
2019-04-06T23:46:33.745Z,7.60
2019-04-06T23:49:04.169Z,7.60
2019-04-06T23:51:34.864Z,7.60
2019-04-06T23:54:05.837Z,7.60
2019-04-06T23:56:36.784Z,7.60
2019-04-06T23:59:08.749Z,7.50
